sensor_id;sensor_type;location;lat;lon;timestamp;P1;durP1;ratioP1;P2;durP2;ratioP2
4102;SDS011;2065;49.790;9.620;2022-09-20T00:00:30;5.53;;;1.83;;
4102;SDS011;2065;49.790;9.620;2022-09-20T00:02:57;2.93;;;2.10;;
4102;SDS011;2065;49.790;9.620;2022-09-20T00:05:24;2.93;;;1.57;;
4102;SDS011;2065;49.790;9.620;2022-09-20T00:07:51;2.67;;;2.43;;
4102;SDS011;2065;49.790;9.620;2022-09-20T00:10:18;4.60;;;2.07;;
4102;SDS011;2065;49.790;9.620;2022-09-20T00:12:48;5.47;;;2.00;;
4102;SDS011;2065;49.790;9.620;2022-09-20T00:15:14;2.30;;;2.10;;
4102;SDS011;2065;49.790;9.620;2022-09-20T00:17:41;1.93;;;1.80;;
4102;SDS011;2065;49.790;9.620;2022-09-20T00:20:08;7.43;;;2.20;;
4102;SDS011;2065;49.790;9.620;2022-09-20T00:22:35;6.30;;;2.50;;
4102;SDS011;2065;49.790;9.620;2022-09-20T00:25:02;3.37;;;1.93;;
4102;SDS011;2065;49.790;9.620;2022-09-20T00:27:30;3.77;;;2.47;;
4102;SDS011;2065;49.790;9.620;2022-09-20T00:29:58;5.43;;;2.10;;
4102;SDS011;2065;49.790;9.620;2022-09-20T00:32:25;2.70;;;1.90;;
4102;SDS011;2065;49.790;9.620;2022-09-20T00:34:52;3.30;;;1.70;;
4102;SDS011;2065;49.790;9.620;2022-09-20T00:37:35;3.30;;;2.07;;
4102;SDS011;2065;49.790;9.620;2022-09-20T00:40:03;2.77;;;1.67;;
4102;SDS011;2065;49.790;9.620;2022-09-20T00:42:31;2.30;;;2.10;;
4102;SDS011;2065;49.790;9.620;2022-09-20T00:45:00;3.47;;;1.80;;
4102;SDS011;2065;49.790;9.620;2022-09-20T00:47:33;5.57;;;2.17;;
4102;SDS011;2065;49.790;9.620;2022-09-20T00:50:13;2.70;;;1.77;;
4102;SDS011;2065;49.790;9.620;2022-09-20T00:52:50;2.67;;;1.60;;
4102;SDS011;2065;49.790;9.620;2022-09-20T00:55:21;7.43;;;2.27;;
4102;SDS011;2065;49.790;9.620;2022-09-20T00:57:48;3.40;;;1.83;;
4102;SDS011;2065;49.790;9.620;2022-09-20T01:00:16;7.03;;;2.53;;
4102;SDS011;2065;49.790;9.620;2022-09-20T01:02:44;3.17;;;1.80;;
4102;SDS011;2065;49.790;9.620;2022-09-20T01:05:14;3.17;;;2.13;;
4102;SDS011;2065;49.790;9.620;2022-09-20T01:07:43;8.07;;;2.27;;
4102;SDS011;2065;49.790;9.620;2022-09-20T01:10:12;4.17;;;1.90;;
4102;SDS011;2065;49.790;9.620;2022-09-20T01:12:39;4.87;;;2.10;;
4102;SDS011;2065;49.790;9.620;2022-09-20T01:15:10;6.40;;;2.10;;
4102;SDS011;2065;49.790;9.620;2022-09-20T01:17:41;4.80;;;2.10;;
4102;SDS011;2065;49.790;9.620;2022-09-20T01:20:13;2.47;;;2.07;;
4102;SDS011;2065;49.790;9.620;2022-09-20T01:22:47;4.50;;;2.50;;
4102;SDS011;2065;49.790;9.620;2022-09-20T01:25:25;3.10;;;1.90;;
4102;SDS011;2065;49.790;9.620;2022-09-20T01:28:12;5.80;;;2.20;;
4102;SDS011;2065;49.790;9.620;2022-09-20T01:30:40;6.63;;;2.17;;
4102;SDS011;2065;49.790;9.620;2022-09-20T01:33:13;4.60;;;2.83;;
4102;SDS011;2065;49.790;9.620;2022-09-20T01:35:49;4.67;;;3.73;;
4102;SDS011;2065;49.790;9.620;2022-09-20T01:38:22;4.00;;;2.03;;
4102;SDS011;2065;49.790;9.620;2022-09-20T01:40:57;7.40;;;2.30;;
4102;SDS011;2065;49.790;9.620;2022-09-20T01:43:33;3.13;;;2.33;;
4102;SDS011;2065;49.790;9.620;2022-09-20T01:46:05;4.70;;;2.00;;
4102;SDS011;2065;49.790;9.620;2022-09-20T01:48:41;3.63;;;1.80;;
4102;SDS011;2065;49.790;9.620;2022-09-20T01:51:13;3.27;;;2.00;;
4102;SDS011;2065;49.790;9.620;2022-09-20T01:54:17;4.30;;;2.03;;
4102;SDS011;2065;49.790;9.620;2022-09-20T01:57:21;5.53;;;2.70;;
4102;SDS011;2065;49.790;9.620;2022-09-20T02:00:10;10.00;;;2.30;;
4102;SDS011;2065;49.790;9.620;2022-09-20T02:02:48;4.13;;;2.40;;
4102;SDS011;2065;49.790;9.620;2022-09-20T02:05:46;4.13;;;2.10;;
4102;SDS011;2065;49.790;9.620;2022-09-20T02:08:35;3.93;;;2.47;;
4102;SDS011;2065;49.790;9.620;2022-09-20T02:11:21;2.30;;;1.90;;
4102;SDS011;2065;49.790;9.620;2022-09-20T02:13:57;3.00;;;2.17;;
4102;SDS011;2065;49.790;9.620;2022-09-20T02:16:38;2.53;;;2.33;;
4102;SDS011;2065;49.790;9.620;2022-09-20T02:19:26;7.20;;;2.50;;
4102;SDS011;2065;49.790;9.620;2022-09-20T02:22:07;11.30;;;2.20;;
4102;SDS011;2065;49.790;9.620;2022-09-20T02:24:43;7.13;;;2.73;;
4102;SDS011;2065;49.790;9.620;2022-09-20T02:27:17;4.03;;;2.23;;
4102;SDS011;2065;49.790;9.620;2022-09-20T02:29:56;3.00;;;2.60;;
4102;SDS011;2065;49.790;9.620;2022-09-20T02:32:40;7.67;;;3.07;;
4102;SDS011;2065;49.790;9.620;2022-09-20T02:35:29;6.83;;;2.97;;
4102;SDS011;2065;49.790;9.620;2022-09-20T02:41:05;4.67;;;2.33;;
4102;SDS011;2065;49.790;9.620;2022-09-20T02:43:50;4.40;;;2.33;;
4102;SDS011;2065;49.790;9.620;2022-09-20T02:46:25;2.93;;;2.03;;
4102;SDS011;2065;49.790;9.620;2022-09-20T02:48:59;5.80;;;2.60;;
4102;SDS011;2065;49.790;9.620;2022-09-20T02:51:34;7.37;;;2.40;;
4102;SDS011;2065;49.790;9.620;2022-09-20T02:54:07;4.87;;;2.90;;
4102;SDS011;2065;49.790;9.620;2022-09-20T02:56:44;3.20;;;2.30;;
4102;SDS011;2065;49.790;9.620;2022-09-20T02:59:19;9.60;;;3.30;;
4102;SDS011;2065;49.790;9.620;2022-09-20T03:01:55;8.30;;;3.63;;
4102;SDS011;2065;49.790;9.620;2022-09-20T03:04:33;2.73;;;2.50;;
4102;SDS011;2065;49.790;9.620;2022-09-20T03:07:09;3.40;;;3.00;;
4102;SDS011;2065;49.790;9.620;2022-09-20T03:09:45;4.50;;;2.03;;
4102;SDS011;2065;49.790;9.620;2022-09-20T03:12:25;4.70;;;3.10;;
4102;SDS011;2065;49.790;9.620;2022-09-20T03:15:00;5.67;;;3.47;;
4102;SDS011;2065;49.790;9.620;2022-09-20T03:17:39;5.10;;;3.00;;
4102;SDS011;2065;49.790;9.620;2022-09-20T03:20:16;4.00;;;3.47;;
4102;SDS011;2065;49.790;9.620;2022-09-20T03:22:53;6.20;;;3.50;;
4102;SDS011;2065;49.790;9.620;2022-09-20T03:25:29;4.37;;;3.40;;
4102;SDS011;2065;49.790;9.620;2022-09-20T03:28:07;7.30;;;4.20;;
4102;SDS011;2065;49.790;9.620;2022-09-20T03:30:44;6.53;;;4.30;;
4102;SDS011;2065;49.790;9.620;2022-09-20T03:33:25;6.53;;;4.80;;
4102;SDS011;2065;49.790;9.620;2022-09-20T03:36:04;5.60;;;4.00;;
4102;SDS011;2065;49.790;9.620;2022-09-20T03:38:51;10.87;;;4.83;;
4102;SDS011;2065;49.790;9.620;2022-09-20T03:41:30;6.80;;;4.67;;
4102;SDS011;2065;49.790;9.620;2022-09-20T03:44:25;10.20;;;5.17;;
4102;SDS011;2065;49.790;9.620;2022-09-20T03:47:10;8.70;;;4.60;;
4102;SDS011;2065;49.790;9.620;2022-09-20T03:49:49;7.27;;;3.83;;
4102;SDS011;2065;49.790;9.620;2022-09-20T03:52:40;8.37;;;4.53;;
4102;SDS011;2065;49.790;9.620;2022-09-20T03:55:36;6.80;;;5.00;;
4102;SDS011;2065;49.790;9.620;2022-09-20T03:58:23;7.20;;;4.50;;
4102;SDS011;2065;49.790;9.620;2022-09-20T04:01:08;9.03;;;4.37;;
4102;SDS011;2065;49.790;9.620;2022-09-20T04:03:48;8.90;;;4.23;;
4102;SDS011;2065;49.790;9.620;2022-09-20T04:12:11;18.77;;;5.20;;
4102;SDS011;2065;49.790;9.620;2022-09-20T04:14:48;9.00;;;5.00;;
4102;SDS011;2065;49.790;9.620;2022-09-20T04:17:24;15.63;;;5.90;;
4102;SDS011;2065;49.790;9.620;2022-09-20T04:19:57;7.33;;;5.00;;
4102;SDS011;2065;49.790;9.620;2022-09-20T04:22:31;11.67;;;5.30;;
4102;SDS011;2065;49.790;9.620;2022-09-20T04:25:01;5.67;;;4.53;;
4102;SDS011;2065;49.790;9.620;2022-09-20T04:27:35;10.20;;;4.70;;
4102;SDS011;2065;49.790;9.620;2022-09-20T04:30:13;6.83;;;5.10;;
4102;SDS011;2065;49.790;9.620;2022-09-20T04:32:45;9.83;;;5.20;;
4102;SDS011;2065;49.790;9.620;2022-09-20T04:35:22;8.10;;;4.50;;
4102;SDS011;2065;49.790;9.620;2022-09-20T04:38:16;7.03;;;4.50;;
4102;SDS011;2065;49.790;9.620;2022-09-20T04:40:53;12.47;;;5.70;;
4102;SDS011;2065;49.790;9.620;2022-09-20T04:43:44;8.63;;;3.80;;
4102;SDS011;2065;49.790;9.620;2022-09-20T04:46:48;5.30;;;4.63;;
4102;SDS011;2065;49.790;9.620;2022-09-20T04:49:51;8.87;;;4.63;;
4102;SDS011;2065;49.790;9.620;2022-09-20T04:56:00;11.10;;;3.70;;
4102;SDS011;2065;49.790;9.620;2022-09-20T04:58:38;7.43;;;4.37;;
4102;SDS011;2065;49.790;9.620;2022-09-20T05:07:31;14.10;;;5.60;;
4102;SDS011;2065;49.790;9.620;2022-09-20T05:10:25;9.73;;;5.27;;
4102;SDS011;2065;49.790;9.620;2022-09-20T05:13:16;8.57;;;6.40;;
4102;SDS011;2065;49.790;9.620;2022-09-20T05:15:55;8.27;;;6.47;;
4102;SDS011;2065;49.790;9.620;2022-09-20T05:18:42;12.23;;;5.90;;
4102;SDS011;2065;49.790;9.620;2022-09-20T05:24:39;16.27;;;5.93;;
4102;SDS011;2065;49.790;9.620;2022-09-20T05:27:31;15.03;;;5.93;;
4102;SDS011;2065;49.790;9.620;2022-09-20T05:30:10;6.60;;;5.30;;
4102;SDS011;2065;49.790;9.620;2022-09-20T05:32:43;8.37;;;5.30;;
4102;SDS011;2065;49.790;9.620;2022-09-20T05:35:18;6.60;;;6.00;;
4102;SDS011;2065;49.790;9.620;2022-09-20T05:37:54;10.90;;;5.50;;
4102;SDS011;2065;49.790;9.620;2022-09-20T05:40:32;7.97;;;5.30;;
4102;SDS011;2065;49.790;9.620;2022-09-20T05:43:11;7.03;;;5.03;;
4102;SDS011;2065;49.790;9.620;2022-09-20T05:45:46;7.53;;;5.70;;
4102;SDS011;2065;49.790;9.620;2022-09-20T05:48:28;9.13;;;5.60;;
4102;SDS011;2065;49.790;9.620;2022-09-20T05:51:05;13.27;;;6.27;;
4102;SDS011;2065;49.790;9.620;2022-09-20T05:56:33;5.70;;;5.07;;
4102;SDS011;2065;49.790;9.620;2022-09-20T06:04:48;10.27;;;6.07;;
4102;SDS011;2065;49.790;9.620;2022-09-20T06:07:27;6.57;;;5.17;;
4102;SDS011;2065;49.790;9.620;2022-09-20T06:10:12;10.10;;;5.77;;
4102;SDS011;2065;49.790;9.620;2022-09-20T06:12:50;8.47;;;5.17;;
4102;SDS011;2065;49.790;9.620;2022-09-20T06:15:24;6.70;;;5.90;;
4102;SDS011;2065;49.790;9.620;2022-09-20T06:18:01;11.60;;;5.23;;
4102;SDS011;2065;49.790;9.620;2022-09-20T06:20:45;10.73;;;5.13;;
4102;SDS011;2065;49.790;9.620;2022-09-20T06:23:21;7.73;;;5.13;;
4102;SDS011;2065;49.790;9.620;2022-09-20T06:25:50;7.53;;;5.20;;
4102;SDS011;2065;49.790;9.620;2022-09-20T06:28:21;8.30;;;6.10;;
4102;SDS011;2065;49.790;9.620;2022-09-20T06:30:51;6.43;;;4.80;;
4102;SDS011;2065;49.790;9.620;2022-09-20T06:33:22;9.27;;;6.10;;
4102;SDS011;2065;49.790;9.620;2022-09-20T06:35:50;6.17;;;4.77;;
4102;SDS011;2065;49.790;9.620;2022-09-20T06:38:26;8.50;;;5.40;;
4102;SDS011;2065;49.790;9.620;2022-09-20T06:41:23;9.77;;;6.17;;
4102;SDS011;2065;49.790;9.620;2022-09-20T06:43:52;7.90;;;5.50;;
4102;SDS011;2065;49.790;9.620;2022-09-20T06:46:23;11.37;;;5.67;;
4102;SDS011;2065;49.790;9.620;2022-09-20T06:48:53;9.13;;;5.27;;
4102;SDS011;2065;49.790;9.620;2022-09-20T06:51:20;7.83;;;5.33;;
4102;SDS011;2065;49.790;9.620;2022-09-20T06:53:49;10.00;;;5.77;;
4102;SDS011;2065;49.790;9.620;2022-09-20T06:56:17;7.40;;;4.80;;
4102;SDS011;2065;49.790;9.620;2022-09-20T06:58:46;17.53;;;5.00;;
4102;SDS011;2065;49.790;9.620;2022-09-20T07:01:14;9.50;;;4.93;;
4102;SDS011;2065;49.790;9.620;2022-09-20T07:03:41;10.23;;;5.17;;
4102;SDS011;2065;49.790;9.620;2022-09-20T07:06:09;5.50;;;4.87;;
4102;SDS011;2065;49.790;9.620;2022-09-20T07:08:37;7.40;;;4.77;;
4102;SDS011;2065;49.790;9.620;2022-09-20T07:11:04;8.00;;;4.90;;
4102;SDS011;2065;49.790;9.620;2022-09-20T07:13:33;7.00;;;5.23;;
4102;SDS011;2065;49.790;9.620;2022-09-20T07:16:02;9.20;;;5.20;;
4102;SDS011;2065;49.790;9.620;2022-09-20T07:18:30;8.37;;;5.13;;
4102;SDS011;2065;49.790;9.620;2022-09-20T07:20:57;6.47;;;4.20;;
4102;SDS011;2065;49.790;9.620;2022-09-20T07:23:26;5.43;;;3.97;;
4102;SDS011;2065;49.790;9.620;2022-09-20T07:25:55;13.97;;;5.77;;
4102;SDS011;2065;49.790;9.620;2022-09-20T07:28:25;7.80;;;4.83;;
4102;SDS011;2065;49.790;9.620;2022-09-20T07:30:52;10.47;;;5.20;;
4102;SDS011;2065;49.790;9.620;2022-09-20T07:33:19;7.30;;;4.37;;
4102;SDS011;2065;49.790;9.620;2022-09-20T07:35:47;5.63;;;4.40;;
4102;SDS011;2065;49.790;9.620;2022-09-20T07:38:14;8.47;;;4.23;;
4102;SDS011;2065;49.790;9.620;2022-09-20T07:40:43;8.50;;;4.43;;
4102;SDS011;2065;49.790;9.620;2022-09-20T07:43:10;5.67;;;4.10;;
4102;SDS011;2065;49.790;9.620;2022-09-20T07:45:38;4.40;;;3.20;;
4102;SDS011;2065;49.790;9.620;2022-09-20T07:48:06;9.63;;;4.03;;
4102;SDS011;2065;49.790;9.620;2022-09-20T07:50:33;10.63;;;4.23;;
4102;SDS011;2065;49.790;9.620;2022-09-20T07:53:00;4.63;;;4.07;;
4102;SDS011;2065;49.790;9.620;2022-09-20T07:55:29;4.27;;;3.30;;
4102;SDS011;2065;49.790;9.620;2022-09-20T07:57:57;7.10;;;3.97;;
4102;SDS011;2065;49.790;9.620;2022-09-20T08:00:24;6.60;;;4.10;;
4102;SDS011;2065;49.790;9.620;2022-09-20T08:02:58;7.63;;;3.87;;
4102;SDS011;2065;49.790;9.620;2022-09-20T08:05:25;7.17;;;3.80;;
4102;SDS011;2065;49.790;9.620;2022-09-20T08:07:52;5.27;;;3.60;;
4102;SDS011;2065;49.790;9.620;2022-09-20T08:10:20;10.10;;;3.70;;
4102;SDS011;2065;49.790;9.620;2022-09-20T08:12:49;7.00;;;3.50;;
4102;SDS011;2065;49.790;9.620;2022-09-20T08:15:17;12.13;;;3.73;;
4102;SDS011;2065;49.790;9.620;2022-09-20T08:17:45;5.80;;;3.10;;
4102;SDS011;2065;49.790;9.620;2022-09-20T08:20:13;10.00;;;4.40;;
4102;SDS011;2065;49.790;9.620;2022-09-20T08:22:41;13.20;;;3.47;;
4102;SDS011;2065;49.790;9.620;2022-09-20T08:25:09;8.33;;;3.70;;
4102;SDS011;2065;49.790;9.620;2022-09-20T08:27:35;10.70;;;3.30;;
4102;SDS011;2065;49.790;9.620;2022-09-20T08:30:03;9.03;;;4.53;;
4102;SDS011;2065;49.790;9.620;2022-09-20T08:32:31;5.60;;;3.57;;
4102;SDS011;2065;49.790;9.620;2022-09-20T08:34:58;7.70;;;4.17;;
4102;SDS011;2065;49.790;9.620;2022-09-20T08:37:25;5.10;;;3.13;;
4102;SDS011;2065;49.790;9.620;2022-09-20T08:39:52;6.47;;;3.73;;
4102;SDS011;2065;49.790;9.620;2022-09-20T08:42:21;4.30;;;2.73;;
4102;SDS011;2065;49.790;9.620;2022-09-20T08:44:53;7.43;;;3.57;;
4102;SDS011;2065;49.790;9.620;2022-09-20T08:47:24;3.50;;;3.20;;
4102;SDS011;2065;49.790;9.620;2022-09-20T08:49:56;4.20;;;3.30;;
4102;SDS011;2065;49.790;9.620;2022-09-20T08:52:26;8.47;;;4.10;;
4102;SDS011;2065;49.790;9.620;2022-09-20T08:54:55;11.93;;;3.33;;
4102;SDS011;2065;49.790;9.620;2022-09-20T08:57:24;6.60;;;2.90;;
4102;SDS011;2065;49.790;9.620;2022-09-20T08:59:53;4.63;;;2.43;;
4102;SDS011;2065;49.790;9.620;2022-09-20T09:02:21;3.70;;;2.00;;
4102;SDS011;2065;49.790;9.620;2022-09-20T09:04:48;4.90;;;2.83;;
4102;SDS011;2065;49.790;9.620;2022-09-20T09:07:19;3.63;;;2.37;;
4102;SDS011;2065;49.790;9.620;2022-09-20T09:09:49;5.40;;;2.30;;
4102;SDS011;2065;49.790;9.620;2022-09-20T09:12:18;9.90;;;3.10;;
4102;SDS011;2065;49.790;9.620;2022-09-20T09:14:48;9.37;;;2.30;;
4102;SDS011;2065;49.790;9.620;2022-09-20T09:17:20;7.60;;;2.30;;
4102;SDS011;2065;49.790;9.620;2022-09-20T09:19:49;3.03;;;2.57;;
4102;SDS011;2065;49.790;9.620;2022-09-20T09:22:20;5.50;;;2.30;;
4102;SDS011;2065;49.790;9.620;2022-09-20T09:27:50;4.20;;;2.10;;
4102;SDS011;2065;49.790;9.620;2022-09-20T09:30:20;17.83;;;3.80;;
4102;SDS011;2065;49.790;9.620;2022-09-20T09:32:48;9.17;;;2.80;;
4102;SDS011;2065;49.790;9.620;2022-09-20T09:35:22;3.80;;;2.40;;
4102;SDS011;2065;49.790;9.620;2022-09-20T09:37:54;4.97;;;2.60;;
4102;SDS011;2065;49.790;9.620;2022-09-20T09:40:22;8.87;;;6.10;;
4102;SDS011;2065;49.790;9.620;2022-09-20T09:42:51;3.53;;;3.03;;
4102;SDS011;2065;49.790;9.620;2022-09-20T09:45:23;7.27;;;3.93;;
4102;SDS011;2065;49.790;9.620;2022-09-20T09:47:56;6.70;;;3.40;;
4102;SDS011;2065;49.790;9.620;2022-09-20T09:50:25;6.77;;;3.20;;
4102;SDS011;2065;49.790;9.620;2022-09-20T09:53:00;6.77;;;2.50;;
4102;SDS011;2065;49.790;9.620;2022-09-20T09:58:25;6.17;;;2.83;;
4102;SDS011;2065;49.790;9.620;2022-09-20T10:01:05;4.57;;;2.47;;
4102;SDS011;2065;49.790;9.620;2022-09-20T10:03:38;5.80;;;2.40;;
4102;SDS011;2065;49.790;9.620;2022-09-20T10:06:16;4.77;;;3.17;;
4102;SDS011;2065;49.790;9.620;2022-09-20T10:08:54;10.23;;;3.00;;
4102;SDS011;2065;49.790;9.620;2022-09-20T10:11:37;6.83;;;2.20;;
4102;SDS011;2065;49.790;9.620;2022-09-20T10:14:22;10.57;;;2.53;;
4102;SDS011;2065;49.790;9.620;2022-09-20T10:17:03;3.10;;;1.60;;
4102;SDS011;2065;49.790;9.620;2022-09-20T10:19:48;3.13;;;1.50;;
4102;SDS011;2065;49.790;9.620;2022-09-20T10:22:30;7.30;;;1.50;;
4102;SDS011;2065;49.790;9.620;2022-09-20T10:25:15;2.20;;;1.40;;
4102;SDS011;2065;49.790;9.620;2022-09-20T10:28:06;2.17;;;1.33;;
4102;SDS011;2065;49.790;9.620;2022-09-20T10:30:46;3.47;;;1.33;;
4102;SDS011;2065;49.790;9.620;2022-09-20T10:33:23;6.67;;;2.00;;
4102;SDS011;2065;49.790;9.620;2022-09-20T10:36:00;13.00;;;2.17;;
4102;SDS011;2065;49.790;9.620;2022-09-20T10:38:37;4.00;;;1.50;;
4102;SDS011;2065;49.790;9.620;2022-09-20T10:41:14;6.03;;;1.73;;
4102;SDS011;2065;49.790;9.620;2022-09-20T10:44:11;2.83;;;1.50;;
4102;SDS011;2065;49.790;9.620;2022-09-20T10:46:52;7.03;;;1.57;;
4102;SDS011;2065;49.790;9.620;2022-09-20T10:49:27;3.33;;;1.43;;
4102;SDS011;2065;49.790;9.620;2022-09-20T10:52:04;3.27;;;1.43;;
4102;SDS011;2065;49.790;9.620;2022-09-20T10:54:51;3.00;;;1.90;;
4102;SDS011;2065;49.790;9.620;2022-09-20T11:00:34;5.43;;;1.80;;
4102;SDS011;2065;49.790;9.620;2022-09-20T11:03:12;3.80;;;1.70;;
4102;SDS011;2065;49.790;9.620;2022-09-20T11:05:54;3.80;;;1.70;;
4102;SDS011;2065;49.790;9.620;2022-09-20T11:08:35;4.50;;;1.67;;
4102;SDS011;2065;49.790;9.620;2022-09-20T11:11:04;4.03;;;1.63;;
4102;SDS011;2065;49.790;9.620;2022-09-20T11:13:39;3.67;;;1.73;;
4102;SDS011;2065;49.790;9.620;2022-09-20T11:16:11;2.47;;;1.93;;
4102;SDS011;2065;49.790;9.620;2022-09-20T11:18:43;5.20;;;3.10;;
4102;SDS011;2065;49.790;9.620;2022-09-20T11:21:15;6.27;;;1.67;;
4102;SDS011;2065;49.790;9.620;2022-09-20T11:23:48;6.60;;;2.17;;
4102;SDS011;2065;49.790;9.620;2022-09-20T11:26:23;5.50;;;1.90;;
4102;SDS011;2065;49.790;9.620;2022-09-20T11:28:58;5.87;;;2.13;;
4102;SDS011;2065;49.790;9.620;2022-09-20T11:31:30;3.23;;;1.57;;
4102;SDS011;2065;49.790;9.620;2022-09-20T11:34:06;6.23;;;2.03;;
4102;SDS011;2065;49.790;9.620;2022-09-20T11:36:40;7.97;;;1.53;;
4102;SDS011;2065;49.790;9.620;2022-09-20T11:39:16;5.80;;;1.67;;
4102;SDS011;2065;49.790;9.620;2022-09-20T11:41:47;3.63;;;1.30;;
4102;SDS011;2065;49.790;9.620;2022-09-20T11:44:18;5.30;;;1.60;;
4102;SDS011;2065;49.790;9.620;2022-09-20T11:46:48;2.07;;;1.47;;
4102;SDS011;2065;49.790;9.620;2022-09-20T11:49:20;2.77;;;1.50;;
4102;SDS011;2065;49.790;9.620;2022-09-20T11:55:15;2.60;;;1.43;;
4102;SDS011;2065;49.790;9.620;2022-09-20T11:57:57;4.80;;;1.60;;
4102;SDS011;2065;49.790;9.620;2022-09-20T12:00:28;3.20;;;1.90;;
4102;SDS011;2065;49.790;9.620;2022-09-20T12:02:59;4.40;;;1.83;;
4102;SDS011;2065;49.790;9.620;2022-09-20T12:05:28;4.03;;;2.63;;
4102;SDS011;2065;49.790;9.620;2022-09-20T12:07:58;7.10;;;2.20;;
4102;SDS011;2065;49.790;9.620;2022-09-20T12:10:28;8.50;;;2.40;;
4102;SDS011;2065;49.790;9.620;2022-09-20T12:12:59;3.97;;;2.33;;
4102;SDS011;2065;49.790;9.620;2022-09-20T12:15:30;7.87;;;2.20;;
4102;SDS011;2065;49.790;9.620;2022-09-20T12:20:57;3.83;;;1.67;;
4102;SDS011;2065;49.790;9.620;2022-09-20T12:23:44;4.30;;;2.17;;
4102;SDS011;2065;49.790;9.620;2022-09-20T12:32:58;2.73;;;2.20;;
4102;SDS011;2065;49.790;9.620;2022-09-20T12:38:44;5.23;;;1.60;;
4102;SDS011;2065;49.790;9.620;2022-09-20T12:41:14;6.63;;;2.73;;
4102;SDS011;2065;49.790;9.620;2022-09-20T12:43:57;10.10;;;4.40;;
4102;SDS011;2065;49.790;9.620;2022-09-20T12:46:31;9.03;;;5.63;;
4102;SDS011;2065;49.790;9.620;2022-09-20T12:49:18;8.83;;;4.00;;
4102;SDS011;2065;49.790;9.620;2022-09-20T12:52:19;6.17;;;1.73;;
4102;SDS011;2065;49.790;9.620;2022-09-20T12:55:09;4.17;;;1.90;;
4102;SDS011;2065;49.790;9.620;2022-09-20T12:57:51;5.00;;;1.80;;
4102;SDS011;2065;49.790;9.620;2022-09-20T13:00:27;4.33;;;1.97;;
4102;SDS011;2065;49.790;9.620;2022-09-20T13:03:09;3.90;;;1.90;;
4102;SDS011;2065;49.790;9.620;2022-09-20T13:05:39;3.50;;;2.17;;
4102;SDS011;2065;49.790;9.620;2022-09-20T13:08:12;5.50;;;2.10;;
4102;SDS011;2065;49.790;9.620;2022-09-20T13:10:43;2.63;;;1.67;;
4102;SDS011;2065;49.790;9.620;2022-09-20T13:13:23;1.83;;;1.50;;
4102;SDS011;2065;49.790;9.620;2022-09-20T13:16:02;3.03;;;1.73;;
4102;SDS011;2065;49.790;9.620;2022-09-20T13:18:32;2.67;;;1.53;;
4102;SDS011;2065;49.790;9.620;2022-09-20T13:21:02;2.83;;;1.50;;
4102;SDS011;2065;49.790;9.620;2022-09-20T13:23:33;2.80;;;1.50;;
4102;SDS011;2065;49.790;9.620;2022-09-20T13:26:10;3.50;;;1.40;;
4102;SDS011;2065;49.790;9.620;2022-09-20T13:28:42;4.70;;;2.10;;
4102;SDS011;2065;49.790;9.620;2022-09-20T13:34:11;1.83;;;1.40;;
4102;SDS011;2065;49.790;9.620;2022-09-20T13:36:52;3.00;;;1.73;;
4102;SDS011;2065;49.790;9.620;2022-09-20T13:39:23;3.83;;;1.43;;
4102;SDS011;2065;49.790;9.620;2022-09-20T13:42:00;3.50;;;1.50;;
4102;SDS011;2065;49.790;9.620;2022-09-20T13:44:31;2.30;;;1.70;;
4102;SDS011;2065;49.790;9.620;2022-09-20T13:46:59;2.40;;;1.63;;
4102;SDS011;2065;49.790;9.620;2022-09-20T13:49:29;2.43;;;1.37;;
4102;SDS011;2065;49.790;9.620;2022-09-20T13:51:58;2.30;;;1.40;;
4102;SDS011;2065;49.790;9.620;2022-09-20T13:54:37;2.07;;;1.40;;
4102;SDS011;2065;49.790;9.620;2022-09-20T13:57:05;5.73;;;1.70;;
4102;SDS011;2065;49.790;9.620;2022-09-20T13:59:41;4.03;;;1.73;;
4102;SDS011;2065;49.790;9.620;2022-09-20T14:02:10;3.27;;;1.33;;
4102;SDS011;2065;49.790;9.620;2022-09-20T14:04:46;5.00;;;1.60;;
4102;SDS011;2065;49.790;9.620;2022-09-20T14:07:16;4.60;;;1.77;;
4102;SDS011;2065;49.790;9.620;2022-09-20T14:09:43;2.80;;;1.73;;
4102;SDS011;2065;49.790;9.620;2022-09-20T14:12:10;3.33;;;1.50;;
4102;SDS011;2065;49.790;9.620;2022-09-20T14:14:38;4.50;;;1.40;;
4102;SDS011;2065;49.790;9.620;2022-09-20T14:17:06;3.10;;;1.40;;
4102;SDS011;2065;49.790;9.620;2022-09-20T14:19:36;3.30;;;1.60;;
4102;SDS011;2065;49.790;9.620;2022-09-20T14:22:06;2.93;;;1.30;;
4102;SDS011;2065;49.790;9.620;2022-09-20T14:24:42;2.60;;;1.20;;
4102;SDS011;2065;49.790;9.620;2022-09-20T14:27:23;2.20;;;1.27;;
4102;SDS011;2065;49.790;9.620;2022-09-20T14:29:51;1.37;;;1.17;;
4102;SDS011;2065;49.790;9.620;2022-09-20T14:32:32;1.70;;;1.03;;
4102;SDS011;2065;49.790;9.620;2022-09-20T14:35:04;1.60;;;1.03;;
4102;SDS011;2065;49.790;9.620;2022-09-20T14:37:40;3.23;;;1.30;;
4102;SDS011;2065;49.790;9.620;2022-09-20T14:40:18;1.70;;;1.30;;
4102;SDS011;2065;49.790;9.620;2022-09-20T14:42:48;1.73;;;1.20;;
4102;SDS011;2065;49.790;9.620;2022-09-20T14:45:23;2.03;;;1.03;;
4102;SDS011;2065;49.790;9.620;2022-09-20T14:47:53;1.40;;;0.90;;
4102;SDS011;2065;49.790;9.620;2022-09-20T14:50:23;3.73;;;1.50;;
4102;SDS011;2065;49.790;9.620;2022-09-20T14:53:13;36.67;;;19.50;;
4102;SDS011;2065;49.790;9.620;2022-09-20T14:55:56;19.10;;;14.83;;
4102;SDS011;2065;49.790;9.620;2022-09-20T14:58:24;1.20;;;1.10;;
4102;SDS011;2065;49.790;9.620;2022-09-20T15:00:52;1.93;;;1.30;;
4102;SDS011;2065;49.790;9.620;2022-09-20T15:03:24;1.17;;;0.90;;
4102;SDS011;2065;49.790;9.620;2022-09-20T15:05:53;2.30;;;1.00;;
4102;SDS011;2065;49.790;9.620;2022-09-20T15:08:20;1.37;;;1.10;;
4102;SDS011;2065;49.790;9.620;2022-09-20T15:10:47;2.00;;;1.13;;
4102;SDS011;2065;49.790;9.620;2022-09-20T15:13:16;1.20;;;1.00;;
4102;SDS011;2065;49.790;9.620;2022-09-20T15:15:44;1.40;;;0.93;;
4102;SDS011;2065;49.790;9.620;2022-09-20T15:18:16;1.00;;;0.90;;
4102;SDS011;2065;49.790;9.620;2022-09-20T15:20:46;3.60;;;1.03;;
4102;SDS011;2065;49.790;9.620;2022-09-20T15:23:13;1.40;;;1.30;;
4102;SDS011;2065;49.790;9.620;2022-09-20T15:25:40;1.83;;;0.90;;
4102;SDS011;2065;49.790;9.620;2022-09-20T15:28:09;1.67;;;1.20;;
4102;SDS011;2065;49.790;9.620;2022-09-20T15:30:40;1.50;;;0.97;;
4102;SDS011;2065;49.790;9.620;2022-09-20T15:33:08;3.30;;;1.00;;
4102;SDS011;2065;49.790;9.620;2022-09-20T15:35:35;1.20;;;0.80;;
4102;SDS011;2065;49.790;9.620;2022-09-20T15:38:02;5.00;;;0.90;;
4102;SDS011;2065;49.790;9.620;2022-09-20T15:40:29;1.77;;;0.90;;
4102;SDS011;2065;49.790;9.620;2022-09-20T15:42:56;1.83;;;0.90;;
4102;SDS011;2065;49.790;9.620;2022-09-20T15:45:24;1.87;;;0.90;;
4102;SDS011;2065;49.790;9.620;2022-09-20T15:47:53;1.53;;;1.10;;
4102;SDS011;2065;49.790;9.620;2022-09-20T15:50:22;1.40;;;0.93;;
4102;SDS011;2065;49.790;9.620;2022-09-20T15:52:49;2.17;;;0.97;;
4102;SDS011;2065;49.790;9.620;2022-09-20T15:55:17;1.53;;;1.10;;
4102;SDS011;2065;49.790;9.620;2022-09-20T15:57:44;2.23;;;0.97;;
4102;SDS011;2065;49.790;9.620;2022-09-20T16:00:13;1.30;;;1.10;;
4102;SDS011;2065;49.790;9.620;2022-09-20T16:02:42;1.30;;;1.20;;
4102;SDS011;2065;49.790;9.620;2022-09-20T16:05:14;2.23;;;1.50;;
4102;SDS011;2065;49.790;9.620;2022-09-20T16:07:41;1.47;;;1.10;;
4102;SDS011;2065;49.790;9.620;2022-09-20T16:10:10;2.27;;;1.87;;
4102;SDS011;2065;49.790;9.620;2022-09-20T16:12:37;1.97;;;1.00;;
4102;SDS011;2065;49.790;9.620;2022-09-20T16:15:04;1.10;;;0.90;;
4102;SDS011;2065;49.790;9.620;2022-09-20T16:17:32;1.70;;;1.13;;
4102;SDS011;2065;49.790;9.620;2022-09-20T16:20:18;3.63;;;1.13;;
4102;SDS011;2065;49.790;9.620;2022-09-20T16:22:45;1.83;;;1.20;;
4102;SDS011;2065;49.790;9.620;2022-09-20T16:25:12;1.30;;;1.10;;
4102;SDS011;2065;49.790;9.620;2022-09-20T16:27:39;2.83;;;1.10;;
4102;SDS011;2065;49.790;9.620;2022-09-20T16:30:07;2.57;;;1.60;;
4102;SDS011;2065;49.790;9.620;2022-09-20T16:32:34;2.80;;;1.77;;
4102;SDS011;2065;49.790;9.620;2022-09-20T16:35:01;3.03;;;1.83;;
4102;SDS011;2065;49.790;9.620;2022-09-20T16:37:32;4.50;;;1.43;;
4102;SDS011;2065;49.790;9.620;2022-09-20T16:40:01;1.23;;;1.13;;
4102;SDS011;2065;49.790;9.620;2022-09-20T16:42:28;2.13;;;1.50;;
4102;SDS011;2065;49.790;9.620;2022-09-20T16:44:56;1.67;;;1.40;;
4102;SDS011;2065;49.790;9.620;2022-09-20T16:47:23;1.87;;;1.60;;
4102;SDS011;2065;49.790;9.620;2022-09-20T16:49:50;5.00;;;1.40;;
4102;SDS011;2065;49.790;9.620;2022-09-20T16:52:18;2.23;;;1.67;;
4102;SDS011;2065;49.790;9.620;2022-09-20T16:54:47;3.07;;;1.77;;